KAFF/AFF METAR and TAF weather

Enter ICAO airport designator
Station Type Date Time Source
KAFF METAR 2021/03/02 16:58 UTC NOAA

KAFF 021658Z AUTO 30016KT 10SM CLR 13/M22 A3004 RMK AO2 SLP174 T01321220


Station Type Date Time Source
KAFF Decoded METAR 2021/03/02 16:58 UTC NOAA

Air Force Academy, CO, United States (KAFF) 38-58N 104-49W 1999M
Mar 02, 2021 - 11:58 AM EST / 2021.03.02 1658 UTC
Wind: from the WNW (300 degrees) at 18 MPH (16 KT):0
Visibility: 10 mile(s):0
Sky conditions: clear
Temperature: 55.8 F (13.2 C)
Dew Point: -7.6 F (-22.0 C)
Relative Humidity: 6%
Pressure (altimeter): 30.04 in. Hg (1017 hPa)
ob: KAFF 021658Z AUTO 30016KT 10SM CLR 13/M22 A3004 RMK AO2 SLP174 T01321220
cycle: 17

Station Type Date Time Source
KAFF TAF 2021/03/02 17:27 UTC NOAA

TAF TAF
AMD KAFF 021722Z 0217/0318 24014KT 9999 SKC 520103 QNH3001INS WND 220V030 ROTOR CONDS EXIST
BECMG 0219/0220 14012KT 9999 SKC QNH2998INS
BECMG 0301/0302 34008KT 9999 SKC QNH2998INS
BECMG 0316/0317 16009KT 9999 SKC QNH3005INS
BECMG 0317/0318 16010G15KT 9999 SKC QNH3003INS TX15/0221Z TNM06/0311Z

Example: see airport list